<?xml version="1.0" encoding="UTF-8" standalone="no" ?>
<gpx xmlns="http://www.topografix.com/GPX/1/1" xmlns:xsi="http://www.w3.org/2001/XMLSchema-instance" xsi:schemaLocation="http://www.topografix.com/GPX/1/1 http://www.topografix.com/GPX/1/1/gpx.xsd" version="1.1" creator="VisuGPX - https://www.visugpx.com">
  <metadata>
    <name>St Heant Fontanes</name>
    <desc><![CDATA[Parcours de reconnaissance GRTE 2025 du CDTE42]]></desc>
  </metadata>
  <trk>
    <name><![CDATA[St Heand, Fontanes, La Gimond-20909758]]></name>
    <extensions>
      <line xmlns="http://www.topografix.com/GPX/gpx_style/0/2">
        <color>0000FF</color>
        <width>4</width>
      </line>
    </extensions>
    <trkseg>
      <trkpt lat="45.53259" lon="4.37564">
        <ele>665</ele>
        <time>2025-04-05T13:27:43Z</time>
      </trkpt>
      <trkpt lat="45.53315" lon="4.3762">
        <ele>659</ele>
        <time>2025-04-05T13:28:38Z</time>
      </trkpt>
      <trkpt lat="45.53352" lon="4.3768">
        <ele>657</ele>
        <time>2025-04-05T13:29:23Z</time>
      </trkpt>
      <trkpt lat="45.53352" lon="4.37715">
        <ele>660</ele>
        <time>2025-04-05T13:29:42Z</time>
      </trkpt>
      <trkpt lat="45.53357" lon="4.37753">
        <ele>662</ele>
        <time>2025-04-05T13:30:04Z</time>
      </trkpt>
      <trkpt lat="45.53377" lon="4.37806">
        <ele>663</ele>
        <time>2025-04-05T13:30:38Z</time>
      </trkpt>
      <trkpt lat="45.534" lon="4.37839">
        <ele>662</ele>
        <time>2025-04-05T13:31:04Z</time>
      </trkpt>
      <trkpt lat="45.53477" lon="4.37844">
        <ele>662</ele>
        <time>2025-04-05T13:32:05Z</time>
      </trkpt>
      <trkpt lat="45.53523" lon="4.37809">
        <ele>660</ele>
        <time>2025-04-05T13:32:47Z</time>
      </trkpt>
      <trkpt lat="45.53497" lon="4.37884">
        <ele>665</ele>
        <time>2025-04-05T13:33:34Z</time>
      </trkpt>
      <trkpt lat="45.53463" lon="4.37934">
        <ele>666</ele>
        <time>2025-04-05T13:34:13Z</time>
      </trkpt>
      <trkpt lat="45.53454" lon="4.3797">
        <ele>667</ele>
        <time>2025-04-05T13:34:35Z</time>
      </trkpt>
      <trkpt lat="45.53446" lon="4.38068">
        <ele>669</ele>
        <time>2025-04-05T13:35:30Z</time>
      </trkpt>
      <trkpt lat="45.53343" lon="4.38113">
        <ele>665</ele>
        <time>2025-04-05T13:36:56Z</time>
      </trkpt>
      <trkpt lat="45.53257" lon="4.38231">
        <ele>672</ele>
        <time>2025-04-05T13:38:32Z</time>
      </trkpt>
      <trkpt lat="45.5322" lon="4.38211">
        <ele>674</ele>
        <time>2025-04-05T13:39:03Z</time>
      </trkpt>
      <trkpt lat="45.53146" lon="4.38265">
        <ele>682</ele>
        <time>2025-04-05T13:40:10Z</time>
      </trkpt>
      <trkpt lat="45.52815" lon="4.38404">
        <ele>725</ele>
        <time>2025-04-05T13:44:46Z</time>
      </trkpt>
      <trkpt lat="45.52747" lon="4.3842">
        <ele>725</ele>
        <time>2025-04-05T13:45:41Z</time>
      </trkpt>
      <trkpt lat="45.52729" lon="4.38641">
        <ele>743</ele>
        <time>2025-04-05T13:47:46Z</time>
      </trkpt>
      <trkpt lat="45.52617" lon="4.38913">
        <ele>761</ele>
        <time>2025-04-05T13:50:43Z</time>
      </trkpt>
      <trkpt lat="45.52624" lon="4.39059">
        <ele>766</ele>
        <time>2025-04-05T13:52:05Z</time>
      </trkpt>
      <trkpt lat="45.5265" lon="4.3926">
        <ele>775</ele>
        <time>2025-04-05T13:54:00Z</time>
      </trkpt>
      <trkpt lat="45.52646" lon="4.39483">
        <ele>787</ele>
        <time>2025-04-05T13:56:05Z</time>
      </trkpt>
      <trkpt lat="45.52619" lon="4.39584">
        <ele>791</ele>
        <time>2025-04-05T13:57:06Z</time>
      </trkpt>
      <trkpt lat="45.52615" lon="4.39758">
        <ele>802</ele>
        <time>2025-04-05T13:58:43Z</time>
      </trkpt>
      <trkpt lat="45.52648" lon="4.39918">
        <ele>815</ele>
        <time>2025-04-05T14:00:17Z</time>
      </trkpt>
      <trkpt lat="45.52768" lon="4.40072">
        <ele>823</ele>
        <time>2025-04-05T14:02:26Z</time>
      </trkpt>
      <trkpt lat="45.52862" lon="4.4027">
        <ele>832</ele>
        <time>2025-04-05T14:04:40Z</time>
      </trkpt>
      <trkpt lat="45.52885" lon="4.40342">
        <ele>836</ele>
        <time>2025-04-05T14:05:25Z</time>
      </trkpt>
      <trkpt lat="45.52894" lon="4.40426">
        <ele>839</ele>
        <time>2025-04-05T14:06:12Z</time>
      </trkpt>
      <trkpt lat="45.5295" lon="4.40416">
        <ele>839</ele>
        <time>2025-04-05T14:06:58Z</time>
      </trkpt>
      <trkpt lat="45.53028" lon="4.40593">
        <ele>850</ele>
        <time>2025-04-05T14:08:55Z</time>
      </trkpt>
      <trkpt lat="45.53096" lon="4.40689">
        <ele>863</ele>
        <time>2025-04-05T14:10:11Z</time>
      </trkpt>
      <trkpt lat="45.53092" lon="4.40742">
        <ele>865</ele>
        <time>2025-04-05T14:10:41Z</time>
      </trkpt>
      <trkpt lat="45.53114" lon="4.40791">
        <ele>866</ele>
        <time>2025-04-05T14:11:14Z</time>
      </trkpt>
      <trkpt lat="45.53145" lon="4.4083">
        <ele>868</ele>
        <time>2025-04-05T14:11:47Z</time>
      </trkpt>
      <trkpt lat="45.53177" lon="4.40807">
        <ele>867</ele>
        <time>2025-04-05T14:12:16Z</time>
      </trkpt>
      <trkpt lat="45.5328" lon="4.40874">
        <ele>860</ele>
        <time>2025-04-05T14:13:46Z</time>
      </trkpt>
      <trkpt lat="45.53226" lon="4.40984">
        <ele>858</ele>
        <time>2025-04-05T14:15:02Z</time>
      </trkpt>
      <trkpt lat="45.53181" lon="4.41041">
        <ele>853</ele>
        <time>2025-04-05T14:15:50Z</time>
      </trkpt>
      <trkpt lat="45.53164" lon="4.41056">
        <ele>851</ele>
        <time>2025-04-05T14:16:06Z</time>
      </trkpt>
      <trkpt lat="45.53096" lon="4.41197">
        <ele>849</ele>
        <time>2025-04-05T14:17:42Z</time>
      </trkpt>
      <trkpt lat="45.53085" lon="4.41298">
        <ele>852</ele>
        <time>2025-04-05T14:18:39Z</time>
      </trkpt>
      <trkpt lat="45.53087" lon="4.41418">
        <ele>853</ele>
        <time>2025-04-05T14:19:47Z</time>
      </trkpt>
      <trkpt lat="45.53074" lon="4.41526">
        <ele>856</ele>
        <time>2025-04-05T14:20:48Z</time>
      </trkpt>
      <trkpt lat="45.53078" lon="4.41629">
        <ele>859</ele>
        <time>2025-04-05T14:21:46Z</time>
      </trkpt>
      <trkpt lat="45.5306" lon="4.41737">
        <ele>859</ele>
        <time>2025-04-05T14:22:48Z</time>
      </trkpt>
      <trkpt lat="45.52999" lon="4.41855">
        <ele>862</ele>
        <time>2025-04-05T14:24:10Z</time>
      </trkpt>
      <trkpt lat="45.52918" lon="4.42012">
        <ele>850</ele>
        <time>2025-04-05T14:26:00Z</time>
      </trkpt>
      <trkpt lat="45.52704" lon="4.42115">
        <ele>836</ele>
        <time>2025-04-05T14:29:01Z</time>
      </trkpt>
      <trkpt lat="45.52695" lon="4.42174">
        <ele>835</ele>
        <time>2025-04-05T14:29:34Z</time>
      </trkpt>
      <trkpt lat="45.52657" lon="4.42461">
        <ele>828</ele>
        <time>2025-04-05T14:32:18Z</time>
      </trkpt>
      <trkpt lat="45.52678" lon="4.42582">
        <ele>822</ele>
        <time>2025-04-05T14:33:28Z</time>
      </trkpt>
      <trkpt lat="45.52752" lon="4.42772">
        <ele>819</ele>
        <time>2025-04-05T14:35:30Z</time>
      </trkpt>
      <trkpt lat="45.52822" lon="4.4282">
        <ele>815</ele>
        <time>2025-04-05T14:36:32Z</time>
      </trkpt>
      <trkpt lat="45.52981" lon="4.42966">
        <ele>803</ele>
        <time>2025-04-05T14:39:04Z</time>
      </trkpt>
      <trkpt lat="45.53076" lon="4.42982">
        <ele>796</ele>
        <time>2025-04-05T14:40:20Z</time>
      </trkpt>
      <trkpt lat="45.53188" lon="4.43051">
        <ele>790</ele>
        <time>2025-04-05T14:41:58Z</time>
      </trkpt>
      <trkpt lat="45.53242" lon="4.43059">
        <ele>783</ele>
        <time>2025-04-05T14:42:41Z</time>
      </trkpt>
      <trkpt lat="45.53307" lon="4.43074">
        <ele>773</ele>
        <time>2025-04-05T14:43:34Z</time>
      </trkpt>
      <trkpt lat="45.53332" lon="4.43157">
        <ele>770</ele>
        <time>2025-04-05T14:44:25Z</time>
      </trkpt>
      <trkpt lat="45.53461" lon="4.43257">
        <ele>755</ele>
        <time>2025-04-05T14:46:22Z</time>
      </trkpt>
      <trkpt lat="45.53488" lon="4.43303">
        <ele>752</ele>
        <time>2025-04-05T14:46:56Z</time>
      </trkpt>
      <trkpt lat="45.53596" lon="4.43354">
        <ele>745</ele>
        <time>2025-04-05T14:48:27Z</time>
      </trkpt>
      <trkpt lat="45.53652" lon="4.43362">
        <ele>742</ele>
        <time>2025-04-05T14:49:12Z</time>
      </trkpt>
      <trkpt lat="45.53706" lon="4.433">
        <ele>743</ele>
        <time>2025-04-05T14:50:08Z</time>
      </trkpt>
      <trkpt lat="45.53762" lon="4.43372">
        <ele>749</ele>
        <time>2025-04-05T14:51:08Z</time>
      </trkpt>
      <trkpt lat="45.53893" lon="4.43416">
        <ele>766</ele>
        <time>2025-04-05T14:52:56Z</time>
      </trkpt>
      <trkpt lat="45.53998" lon="4.43516">
        <ele>772</ele>
        <time>2025-04-05T14:54:37Z</time>
      </trkpt>
      <trkpt lat="45.54055" lon="4.43598">
        <ele>775</ele>
        <time>2025-04-05T14:55:42Z</time>
      </trkpt>
      <trkpt lat="45.54149" lon="4.43673">
        <ele>772</ele>
        <time>2025-04-05T14:57:08Z</time>
      </trkpt>
      <trkpt lat="45.54207" lon="4.43758">
        <ele>774</ele>
        <time>2025-04-05T14:58:14Z</time>
      </trkpt>
      <trkpt lat="45.54268" lon="4.43735">
        <ele>774</ele>
        <time>2025-04-05T14:59:05Z</time>
      </trkpt>
      <trkpt lat="45.54284" lon="4.43699">
        <ele>779</ele>
        <time>2025-04-05T14:59:29Z</time>
      </trkpt>
      <trkpt lat="45.54273" lon="4.43624">
        <ele>781</ele>
        <time>2025-04-05T15:00:12Z</time>
      </trkpt>
      <trkpt lat="45.54284" lon="4.43583">
        <ele>789</ele>
        <time>2025-04-05T15:00:36Z</time>
      </trkpt>
      <trkpt lat="45.54426" lon="4.4373">
        <ele>813</ele>
        <time>2025-04-05T15:02:57Z</time>
      </trkpt>
      <trkpt lat="45.54557" lon="4.43781">
        <ele>830</ele>
        <time>2025-04-05T15:04:46Z</time>
      </trkpt>
      <trkpt lat="45.54601" lon="4.43804">
        <ele>835</ele>
        <time>2025-04-05T15:05:23Z</time>
      </trkpt>
      <trkpt lat="45.54629" lon="4.43809">
        <ele>840</ele>
        <time>2025-04-05T15:05:46Z</time>
      </trkpt>
      <trkpt lat="45.5471" lon="4.4401">
        <ele>833</ele>
        <time>2025-04-05T15:07:56Z</time>
      </trkpt>
      <trkpt lat="45.54734" lon="4.44105">
        <ele>839</ele>
        <time>2025-04-05T15:08:52Z</time>
      </trkpt>
      <trkpt lat="45.54703" lon="4.44136">
        <ele>843</ele>
        <time>2025-04-05T15:09:23Z</time>
      </trkpt>
      <trkpt lat="45.54602" lon="4.44223">
        <ele>858</ele>
        <time>2025-04-05T15:10:57Z</time>
      </trkpt>
      <trkpt lat="45.54556" lon="4.44305">
        <ele>861</ele>
        <time>2025-04-05T15:11:56Z</time>
      </trkpt>
      <trkpt lat="45.54608" lon="4.44328">
        <ele>865</ele>
        <time>2025-04-05T15:12:40Z</time>
      </trkpt>
      <trkpt lat="45.54645" lon="4.44354">
        <ele>866</ele>
        <time>2025-04-05T15:13:13Z</time>
      </trkpt>
      <trkpt lat="45.5473" lon="4.44416">
        <ele>868</ele>
        <time>2025-04-05T15:14:29Z</time>
      </trkpt>
      <trkpt lat="45.54899" lon="4.44536">
        <ele>868</ele>
        <time>2025-04-05T15:17:00Z</time>
      </trkpt>
      <trkpt lat="45.54999" lon="4.44526">
        <ele>872</ele>
        <time>2025-04-05T15:18:20Z</time>
      </trkpt>
      <trkpt lat="45.55078" lon="4.44532">
        <ele>875</ele>
        <time>2025-04-05T15:19:24Z</time>
      </trkpt>
      <trkpt lat="45.55146" lon="4.44485">
        <ele>880</ele>
        <time>2025-04-05T15:20:24Z</time>
      </trkpt>
      <trkpt lat="45.55245" lon="4.4436">
        <ele>886</ele>
        <time>2025-04-05T15:22:10Z</time>
      </trkpt>
      <trkpt lat="45.5537" lon="4.44365">
        <ele>888</ele>
        <time>2025-04-05T15:23:50Z</time>
      </trkpt>
      <trkpt lat="45.55446" lon="4.4433">
        <ele>887</ele>
        <time>2025-04-05T15:24:54Z</time>
      </trkpt>
      <trkpt lat="45.55487" lon="4.44273">
        <ele>882</ele>
        <time>2025-04-05T15:25:40Z</time>
      </trkpt>
      <trkpt lat="45.55526" lon="4.44174">
        <ele>872</ele>
        <time>2025-04-05T15:26:44Z</time>
      </trkpt>
      <trkpt lat="45.55586" lon="4.43985">
        <ele>851</ele>
        <time>2025-04-05T15:28:40Z</time>
      </trkpt>
      <trkpt lat="45.55609" lon="4.43873">
        <ele>841</ele>
        <time>2025-04-05T15:29:45Z</time>
      </trkpt>
      <trkpt lat="45.55631" lon="4.43758">
        <ele>830</ele>
        <time>2025-04-05T15:30:52Z</time>
      </trkpt>
      <trkpt lat="45.5566" lon="4.4365">
        <ele>819</ele>
        <time>2025-04-05T15:31:57Z</time>
      </trkpt>
      <trkpt lat="45.557" lon="4.43506">
        <ele>801</ele>
        <time>2025-04-05T15:33:24Z</time>
      </trkpt>
      <trkpt lat="45.55766" lon="4.4355">
        <ele>801</ele>
        <time>2025-04-05T15:34:22Z</time>
      </trkpt>
      <trkpt lat="45.55793" lon="4.43623">
        <ele>805</ele>
        <time>2025-04-05T15:35:08Z</time>
      </trkpt>
      <trkpt lat="45.55914" lon="4.43716">
        <ele>801</ele>
        <time>2025-04-05T15:36:59Z</time>
      </trkpt>
      <trkpt lat="45.55908" lon="4.43645">
        <ele>798</ele>
        <time>2025-04-05T15:37:39Z</time>
      </trkpt>
      <trkpt lat="45.55992" lon="4.434">
        <ele>790</ele>
        <time>2025-04-05T15:40:12Z</time>
      </trkpt>
      <trkpt lat="45.55971" lon="4.43269">
        <ele>779</ele>
        <time>2025-04-05T15:41:27Z</time>
      </trkpt>
      <trkpt lat="45.55945" lon="4.43216">
        <ele>774</ele>
        <time>2025-04-05T15:42:03Z</time>
      </trkpt>
      <trkpt lat="45.55966" lon="4.43121">
        <ele>766</ele>
        <time>2025-04-05T15:42:59Z</time>
      </trkpt>
      <trkpt lat="45.56304" lon="4.43148">
        <ele>729</ele>
        <time>2025-04-05T15:47:30Z</time>
      </trkpt>
      <trkpt lat="45.56428" lon="4.4321">
        <ele>718</ele>
        <time>2025-04-05T15:49:15Z</time>
      </trkpt>
      <trkpt lat="45.56447" lon="4.4308">
        <ele>732</ele>
        <time>2025-04-05T15:50:30Z</time>
      </trkpt>
      <trkpt lat="45.56424" lon="4.42949">
        <ele>753</ele>
        <time>2025-04-05T15:51:45Z</time>
      </trkpt>
      <trkpt lat="45.56387" lon="4.4286">
        <ele>766</ele>
        <time>2025-04-05T15:52:43Z</time>
      </trkpt>
      <trkpt lat="45.56345" lon="4.4266">
        <ele>768</ele>
        <time>2025-04-05T15:54:40Z</time>
      </trkpt>
      <trkpt lat="45.56241" lon="4.42485">
        <ele>765</ele>
        <time>2025-04-05T15:56:49Z</time>
      </trkpt>
      <trkpt lat="45.56249" lon="4.42446">
        <ele>765</ele>
        <time>2025-04-05T15:57:12Z</time>
      </trkpt>
      <trkpt lat="45.56174" lon="4.42407">
        <ele>765</ele>
        <time>2025-04-05T15:58:16Z</time>
      </trkpt>
      <trkpt lat="45.56143" lon="4.42407">
        <ele>764</ele>
        <time>2025-04-05T15:58:41Z</time>
      </trkpt>
      <trkpt lat="45.561" lon="4.42395">
        <ele>762</ele>
        <time>2025-04-05T15:59:16Z</time>
      </trkpt>
      <trkpt lat="45.55885" lon="4.42452">
        <ele>727</ele>
        <time>2025-04-05T16:02:11Z</time>
      </trkpt>
      <trkpt lat="45.55865" lon="4.42338">
        <ele>722</ele>
        <time>2025-04-05T16:03:17Z</time>
      </trkpt>
      <trkpt lat="45.55837" lon="4.42353">
        <ele>717</ele>
        <time>2025-04-05T16:03:41Z</time>
      </trkpt>
      <trkpt lat="45.55796" lon="4.4245">
        <ele>717</ele>
        <time>2025-04-05T16:04:44Z</time>
      </trkpt>
      <trkpt lat="45.55708" lon="4.4248">
        <ele>724</ele>
        <time>2025-04-05T16:05:57Z</time>
      </trkpt>
      <trkpt lat="45.55579" lon="4.42426">
        <ele>727</ele>
        <time>2025-04-05T16:07:44Z</time>
      </trkpt>
      <trkpt lat="45.55564" lon="4.42379">
        <ele>724</ele>
        <time>2025-04-05T16:08:13Z</time>
      </trkpt>
      <trkpt lat="45.55509" lon="4.42321">
        <ele>722</ele>
        <time>2025-04-05T16:09:08Z</time>
      </trkpt>
      <trkpt lat="45.5553" lon="4.42267">
        <ele>719</ele>
        <time>2025-04-05T16:09:43Z</time>
      </trkpt>
      <trkpt lat="45.55526" lon="4.42224">
        <ele>717</ele>
        <time>2025-04-05T16:10:07Z</time>
      </trkpt>
      <trkpt lat="45.55558" lon="4.42033">
        <ele>704</ele>
        <time>2025-04-05T16:11:57Z</time>
      </trkpt>
      <trkpt lat="45.55588" lon="4.41879">
        <ele>695</ele>
        <time>2025-04-05T16:13:27Z</time>
      </trkpt>
      <trkpt lat="45.55603" lon="4.41776">
        <ele>688</ele>
        <time>2025-04-05T16:14:26Z</time>
      </trkpt>
      <trkpt lat="45.55603" lon="4.41587">
        <ele>674</ele>
        <time>2025-04-05T16:16:12Z</time>
      </trkpt>
      <trkpt lat="45.55631" lon="4.41392">
        <ele>664</ele>
        <time>2025-04-05T16:18:03Z</time>
      </trkpt>
      <trkpt lat="45.55601" lon="4.4136">
        <ele>663</ele>
        <time>2025-04-05T16:18:33Z</time>
      </trkpt>
      <trkpt lat="45.55655" lon="4.41235">
        <ele>657</ele>
        <time>2025-04-05T16:19:55Z</time>
      </trkpt>
      <trkpt lat="45.55682" lon="4.41053">
        <ele>649</ele>
        <time>2025-04-05T16:21:40Z</time>
      </trkpt>
      <trkpt lat="45.55673" lon="4.41018">
        <ele>645</ele>
        <time>2025-04-05T16:22:01Z</time>
      </trkpt>
      <trkpt lat="45.55628" lon="4.40978">
        <ele>647</ele>
        <time>2025-04-05T16:22:43Z</time>
      </trkpt>
      <trkpt lat="45.55615" lon="4.40903">
        <ele>648</ele>
        <time>2025-04-05T16:23:26Z</time>
      </trkpt>
      <trkpt lat="45.5558" lon="4.40961">
        <ele>653</ele>
        <time>2025-04-05T16:24:09Z</time>
      </trkpt>
      <trkpt lat="45.55586" lon="4.40982">
        <ele>652</ele>
        <time>2025-04-05T16:24:22Z</time>
      </trkpt>
      <trkpt lat="45.55579" lon="4.41003">
        <ele>653</ele>
        <time>2025-04-05T16:24:35Z</time>
      </trkpt>
      <trkpt lat="45.55546" lon="4.41021">
        <ele>657</ele>
        <time>2025-04-05T16:25:03Z</time>
      </trkpt>
      <trkpt lat="45.55534" lon="4.41042">
        <ele>659</ele>
        <time>2025-04-05T16:25:19Z</time>
      </trkpt>
      <trkpt lat="45.55518" lon="4.41074">
        <ele>662</ele>
        <time>2025-04-05T16:25:41Z</time>
      </trkpt>
      <trkpt lat="45.55482" lon="4.41083">
        <ele>668</ele>
        <time>2025-04-05T16:26:10Z</time>
      </trkpt>
      <trkpt lat="45.55472" lon="4.41156">
        <ele>674</ele>
        <time>2025-04-05T16:26:52Z</time>
      </trkpt>
      <trkpt lat="45.5544" lon="4.41184">
        <ele>678</ele>
        <time>2025-04-05T16:27:22Z</time>
      </trkpt>
      <trkpt lat="45.55386" lon="4.41246">
        <ele>685</ele>
        <time>2025-04-05T16:28:17Z</time>
      </trkpt>
      <trkpt lat="45.55283" lon="4.41261">
        <ele>693</ele>
        <time>2025-04-05T16:29:40Z</time>
      </trkpt>
      <trkpt lat="45.55138" lon="4.41379">
        <ele>702</ele>
        <time>2025-04-05T16:31:54Z</time>
      </trkpt>
      <trkpt lat="45.55127" lon="4.41327">
        <ele>703</ele>
        <time>2025-04-05T16:32:24Z</time>
      </trkpt>
      <trkpt lat="45.5496" lon="4.41332">
        <ele>694</ele>
        <time>2025-04-05T16:34:38Z</time>
      </trkpt>
      <trkpt lat="45.54944" lon="4.41296">
        <ele>690</ele>
        <time>2025-04-05T16:35:02Z</time>
      </trkpt>
      <trkpt lat="45.54856" lon="4.41264">
        <ele>678</ele>
        <time>2025-04-05T16:36:14Z</time>
      </trkpt>
      <trkpt lat="45.54787" lon="4.41318">
        <ele>672</ele>
        <time>2025-04-05T16:37:17Z</time>
      </trkpt>
      <trkpt lat="45.54752" lon="4.41293">
        <ele>668</ele>
        <time>2025-04-05T16:37:49Z</time>
      </trkpt>
      <trkpt lat="45.54705" lon="4.41287">
        <ele>665</ele>
        <time>2025-04-05T16:38:27Z</time>
      </trkpt>
      <trkpt lat="45.54708" lon="4.41151">
        <ele>661</ele>
        <time>2025-04-05T16:39:43Z</time>
      </trkpt>
      <trkpt lat="45.54673" lon="4.41061">
        <ele>658</ele>
        <time>2025-04-05T16:40:41Z</time>
      </trkpt>
      <trkpt lat="45.54616" lon="4.41039">
        <ele>666</ele>
        <time>2025-04-05T16:41:28Z</time>
      </trkpt>
      <trkpt lat="45.54594" lon="4.40967">
        <ele>673</ele>
        <time>2025-04-05T16:42:12Z</time>
      </trkpt>
      <trkpt lat="45.5456" lon="4.40998">
        <ele>677</ele>
        <time>2025-04-05T16:42:44Z</time>
      </trkpt>
      <trkpt lat="45.54515" lon="4.40994">
        <ele>684</ele>
        <time>2025-04-05T16:43:20Z</time>
      </trkpt>
      <trkpt lat="45.5443" lon="4.40881">
        <ele>700</ele>
        <time>2025-04-05T16:44:53Z</time>
      </trkpt>
      <trkpt lat="45.54342" lon="4.40841">
        <ele>711</ele>
        <time>2025-04-05T16:46:07Z</time>
      </trkpt>
      <trkpt lat="45.54336" lon="4.40669">
        <ele>707</ele>
        <time>2025-04-05T16:47:44Z</time>
      </trkpt>
      <trkpt lat="45.54295" lon="4.4053">
        <ele>705</ele>
        <time>2025-04-05T16:49:08Z</time>
      </trkpt>
      <trkpt lat="45.54276" lon="4.40372">
        <ele>709</ele>
        <time>2025-04-05T16:50:38Z</time>
      </trkpt>
      <trkpt lat="45.54238" lon="4.40318">
        <ele>717</ele>
        <time>2025-04-05T16:51:21Z</time>
      </trkpt>
      <trkpt lat="45.54241" lon="4.40151">
        <ele>725</ele>
        <time>2025-04-05T16:52:55Z</time>
      </trkpt>
      <trkpt lat="45.542" lon="4.40093">
        <ele>729</ele>
        <time>2025-04-05T16:53:41Z</time>
      </trkpt>
      <trkpt lat="45.54099" lon="4.39985">
        <ele>727</ele>
        <time>2025-04-05T16:55:22Z</time>
      </trkpt>
      <trkpt lat="45.54004" lon="4.39638">
        <ele>738</ele>
        <time>2025-04-05T16:58:51Z</time>
      </trkpt>
      <trkpt lat="45.53932" lon="4.39525">
        <ele>735</ele>
        <time>2025-04-05T17:00:17Z</time>
      </trkpt>
      <trkpt lat="45.5385" lon="4.393">
        <ele>727</ele>
        <time>2025-04-05T17:02:39Z</time>
      </trkpt>
      <trkpt lat="45.53745" lon="4.39192">
        <ele>718</ele>
        <time>2025-04-05T17:04:23Z</time>
      </trkpt>
      <trkpt lat="45.53648" lon="4.38922">
        <ele>711</ele>
        <time>2025-04-05T17:07:13Z</time>
      </trkpt>
      <trkpt lat="45.53446" lon="4.38714">
        <ele>719</ele>
        <time>2025-04-05T17:10:32Z</time>
      </trkpt>
      <trkpt lat="45.53357" lon="4.38539">
        <ele>705</ele>
        <time>2025-04-05T17:12:34Z</time>
      </trkpt>
      <trkpt lat="45.53275" lon="4.38345">
        <ele>681</ele>
        <time>2025-04-05T17:14:41Z</time>
      </trkpt>
      <trkpt lat="45.53275" lon="4.38261">
        <ele>674</ele>
        <time>2025-04-05T17:15:28Z</time>
      </trkpt>
      <trkpt lat="45.53266" lon="4.38242">
        <ele>673</ele>
        <time>2025-04-05T17:15:41Z</time>
      </trkpt>
      <trkpt lat="45.53349" lon="4.38129">
        <ele>667</ele>
        <time>2025-04-05T17:17:12Z</time>
      </trkpt>
      <trkpt lat="45.5345" lon="4.38083">
        <ele>670</ele>
        <time>2025-04-05T17:18:37Z</time>
      </trkpt>
      <trkpt lat="45.53466" lon="4.37963">
        <ele>668</ele>
        <time>2025-04-05T17:19:46Z</time>
      </trkpt>
      <trkpt lat="45.53503" lon="4.37897">
        <ele>667</ele>
        <time>2025-04-05T17:20:33Z</time>
      </trkpt>
      <trkpt lat="45.5353" lon="4.37795">
        <ele>659</ele>
        <time>2025-04-05T17:21:34Z</time>
      </trkpt>
      <trkpt lat="45.53478" lon="4.37829">
        <ele>661</ele>
        <time>2025-04-05T17:22:20Z</time>
      </trkpt>
      <trkpt lat="45.53404" lon="4.37826">
        <ele>660</ele>
        <time>2025-04-05T17:23:19Z</time>
      </trkpt>
      <trkpt lat="45.53386" lon="4.37802">
        <ele>661</ele>
        <time>2025-04-05T17:23:39Z</time>
      </trkpt>
      <trkpt lat="45.53369" lon="4.37749">
        <ele>660</ele>
        <time>2025-04-05T17:24:12Z</time>
      </trkpt>
      <trkpt lat="45.53364" lon="4.37718">
        <ele>658</ele>
        <time>2025-04-05T17:24:30Z</time>
      </trkpt>
      <trkpt lat="45.53362" lon="4.37672">
        <ele>655</ele>
        <time>2025-04-05T17:24:56Z</time>
      </trkpt>
      <trkpt lat="45.53323" lon="4.37608">
        <ele>657</ele>
        <time>2025-04-05T17:25:43Z</time>
      </trkpt>
      <trkpt lat="45.5325" lon="4.37566">
        <ele>666</ele>
        <time>2025-04-05T17:26:46Z</time>
      </trkpt>
    </trkseg>
  </trk>
</gpx>